Seychelles International Airport

Airport
ICAO code: 
FSIA
IATA Code: 
SEZ
Summary
ICAO Region: 
AFI
Territory: 
Location: 
Pointe la rue, Mahé
Serving: 
Victoria
Elevation: 
10 ft
Coordinates: 
Aerial View: 
4° 40' 18" S, 55° 31' 24" E
Metar
Observation
FSIA 260500Z 31008KT 9999 FEW022 28/23 Q1011 NOSIG
Station
Seychelles Inter-National Airport
Date/Time
2022-01-26 05:00:00
Wind direction
310°
Wind speed
08 kts
Lowest cloud amount
few clouds
Temperature
28°C
Dew point
23°C
Humidity
74%
QNH
1011 hPa
Weather condition
n/a

International airport serving the islands of the Seychelles.

Climatology

Tropical Savanna climate (Köppen climate classification Aw) - monthly mean temperature above 18°C in every month of the year and a pronounced dry season.

Runways

Designator Length Width Surface Rops
13/31 2987 46 CON Yes/Yes
Airport map: 
Aerial View: 

SKYbrary Partners:

Safety knowledge contributed by: